METAR Data
IDs: Format: Raw Decoded Include TAF

Data at: 1259 UTC 26 Feb 2021

EGSH 261250Z 29008KT 240V350 9999 SCT028 10/02 Q1037